| time (UTC) | temp F | wind direction | speed MPH | gust MPH | rain 1hr in | rain 24hr in | rain mn in | humidity % | barometer mb |
| 20260506173104 | 77 | 0 | 1.0 | 6.0 | 0.00 | 0.00 | 0.00 | 25 | 1010.9 |
| 20260506171542 | 76 | 0 | 0.0 | 5.0 | 0.00 | 0.00 | 0.00 | 28 | 1010.8 |
| 20260506170051 | 76 | 0 | 0.0 | 0.0 | 0.00 | 0.00 | 0.00 | 28 | 1010.8 |
| 20260506164551 | 76 | 0 | 0.0 | 0.0 | 0.00 | 0.00 | 0.00 | 27 | 1010.9 |
| 20260506163050 | 74 | 0 | 0.0 | 0.0 | 0.00 | 0.00 | 0.00 | 30 | 1010.9 |
| 20260506161542 | 74 | 0 | 0.0 | 0.0 | 0.00 | 0.00 | 0.00 | 29 | 1010.9 |
| 20260506160042 | 73 | 0 | 0.0 | 0.0 | 0.00 | 0.00 | 0.00 | 31 | 1010.8 |
| 20260506154551 | 73 | 0 | 0.0 | 0.0 | 0.00 | 0.00 | 0.00 | 33 | 1010.9 |
| 20260506153040 | 72 | 0 | 0.0 | 0.0 | 0.00 | 0.00 | 0.00 | 35 | 1010.8 |
| 20260506151544 | 70 | 0 | 0.0 | 0.0 | 0.00 | 0.00 | 0.00 | 38 | 1010.7 |
| 20260506150042 | 68 | 0 | 0.0 | 0.0 | 0.00 | 0.00 | 0.00 | 41 | 1010.7 |
| 20260506144550 | 65 | 0 | 0.0 | 0.0 | 0.00 | 0.00 | 0.00 | 45 | 1010.7 |
| 20260506143037 | 62 | 0 | 0.0 | 0.0 | 0.00 | 0.00 | 0.00 | 51 | 1010.6 |
| 20260506141542 | 60 | 0 | 0.0 | 0.0 | 0.00 | 0.00 | 0.00 | 53 | 1010.6 |
| 20260506140040 | 59 | 0 | 0.0 | 0.0 | 0.00 | 0.00 | 0.00 | 55 | 1010.2 |
| 20260506134542 | 57 | 0 | 0.0 | 0.0 | 0.00 | 0.00 | 0.00 | 56 | 1010.1 |
| 20260506133052 | 56 | 0 | 0.0 | 0.0 | 0.00 | 0.00 | 0.00 | 56 | 1009.9 |
| 20260506131537 | 56 | 0 | 0.0 | 0.0 | 0.00 | 0.00 | 0.00 | 56 | 1009.8 |
| 20260506130038 | 56 | 0 | 0.0 | 0.0 | 0.00 | 0.00 | 0.00 | 56 | 1009.6 |
| 20260506124535 | 56 | 0 | 0.0 | 0.0 | 0.00 | 0.00 | 0.00 | 55 | 1009.4 |
| 20260506123040 | 57 | 0 | 0.0 | 0.0 | 0.00 | 0.00 | 0.00 | 55 | 1009.3 |
| 20260506121541 | 57 | 0 | 0.0 | 0.0 | 0.00 | 0.00 | 0.00 | 55 | 1009.2 |
| 20260506120037 | 57 | 0 | 0.0 | 0.0 | 0.00 | 0.00 | 0.00 | 54 | 1008.9 |
| 20260506114540 | 57 | 0 | 0.0 | 0.0 | 0.00 | 0.00 | 0.00 | 53 | 1009.0 |
| 20260506113036 | 57 | 0 | 0.0 | 0.0 | 0.00 | 0.00 | 0.00 | 53 | 1008.9 |
| 20260506111543 | 58 | 0 | 0.0 | 0.0 | 0.00 | 0.00 | 0.00 | 52 | 1008.9 |
| 20260506110045 | 58 | 0 | 0.0 | 0.0 | 0.00 | 0.00 | 0.00 | 51 | 1009.0 |
| 20260506104605 | 59 | 0 | 0.0 | 0.0 | 0.00 | 0.00 | 0.00 | 51 | 1009.0 |
| 20260506103040 | 59 | 0 | 0.0 | 0.0 | 0.00 | 0.00 | 0.00 | 50 | 1008.8 |
| 20260506101540 | 59 | 0 | 0.0 | 0.0 | 0.00 | 0.00 | 0.00 | 50 | 1008.7 |
| 20260506100044 | 59 | 0 | 0.0 | 0.0 | 0.00 | 0.00 | 0.00 | 49 | 1008.6 |
| 20260506094540 | 59 | 0 | 0.0 | 0.0 | 0.00 | 0.00 | 0.00 | 49 | 1008.7 |
| 20260506093038 | 60 | 0 | 0.0 | 0.0 | 0.00 | 0.00 | 0.00 | 48 | 1008.7 |
| 20260506091539 | 60 | 0 | 0.0 | 0.0 | 0.00 | 0.00 | 0.00 | 48 | 1008.7 |
| 20260506090044 | 61 | 0 | 0.0 | 0.0 | 0.00 | 0.00 | 0.00 | 47 | 1008.8 |
| 20260506084538 | 61 | 0 | 0.0 | 0.0 | 0.00 | 0.00 | 0.00 | 47 | 1008.9 |
| 20260506083040 | 61 | 0 | 0.0 | 0.0 | 0.00 | 0.00 | 0.00 | 47 | 1009.0 |
| 20260506081534 | 62 | 0 | 0.0 | 0.0 | 0.00 | 0.00 | 0.00 | 46 | 1008.9 |
| 20260506073042 | 63 | 0 | 0.0 | 0.0 | 0.00 | 0.00 | 0.00 | 43 | 1008.8 |
| 20260506071535 | 63 | 0 | 0.0 | 0.0 | 0.00 | 0.00 | 0.00 | 42 | 1008.6 |
| 20260506061537 | 66 | 0 | 0.0 | 1.0 | 0.00 | 0.00 | 0.00 | 36 | 1008.0 |
| 20260506044538 | 68 | 0 | 0.0 | 0.0 | 0.00 | 0.00 | 0.00 | 33 | 1007.0 |
| 20260506043052 | 68 | 0 | 0.0 | 0.0 | 0.00 | 0.00 | 0.00 | 32 | 1007.0 |
| 20260506041544 | 69 | 0 | 0.0 | 0.0 | 0.00 | 0.00 | 0.00 | 32 | 1006.7 |
| 20260506040049 | 69 | 0 | 0.0 | 2.0 | 0.00 | 0.00 | 0.00 | 31 | 1006.5 |
| 20260506034537 | 69 | 0 | 0.0 | 0.0 | 0.00 | 0.00 | 0.00 | 30 | 1006.2 |
| 20260506033036 | 70 | 0 | 0.0 | 2.0 | 0.00 | 0.00 | 0.00 | 30 | 1006.1 |
| 20260506031539 | 71 | 0 | 0.0 | 0.0 | 0.00 | 0.00 | 0.00 | 30 | 1005.9 |
| 20260506030044 | 71 | 0 | 0.0 | 0.0 | 0.00 | 0.00 | 0.00 | 29 | 1005.7 |
| 20260506024546 | 71 | 0 | 0.0 | 3.0 | 0.00 | 0.00 | 0.00 | 27 | 1005.4 |
| 20260506023038 | 72 | 1 | 0.0 | 6.0 | 0.00 | 0.00 | 0.00 | 26 | 1005.1 |
| 20260506021550 | 73 | 4 | 1.0 | 8.0 | 0.00 | 0.00 | 0.00 | 25 | 1004.8 |
| 20260506020037 | 74 | 2 | 1.0 | 7.0 | 0.00 | 0.00 | 0.00 | 23 | 1004.8 |
| 20260506014542 | 75 | 13 | 0.0 | 5.0 | 0.00 | 0.00 | 0.00 | 21 | 1004.6 |
| 20260506013044 | 77 | 0 | 0.0 | 8.0 | 0.00 | 0.00 | 0.00 | 20 | 1004.3 |
| 20260506011545 | 77 | 0 | 0.0 | 5.0 | 0.00 | 0.00 | 0.00 | 18 | 1004.3 |
| 20260506010047 | 79 | 11 | 0.0 | 4.0 | 0.00 | 0.00 | 0.00 | 17 | 1004.0 |
| 20260506004536 | 81 | 0 | 0.0 | 0.0 | 0.00 | 0.00 | 0.00 | 15 | 1004.2 |
| 20260506003035 | 81 | 0 | 0.0 | 3.0 | 0.00 | 0.00 | 0.00 | 15 | 1004.0 |
| 20260506001535 | 81 | 0 | 0.0 | 0.0 | 0.00 | 0.00 | 0.00 | 15 | 1004.1 |
| 20260506000041 | 79 | 0 | 0.0 | 4.0 | 0.00 | 0.00 | 0.00 | 15 | 1004.3 |
| 20260505234602 | 80 | 0 | 1.0 | 8.0 | 0.00 | 0.00 | 0.00 | 15 | 1004.2 |
| 20260505233040 | 80 | 0 | 0.0 | 4.0 | 0.00 | 0.00 | 0.00 | 17 | 1004.2 |
| 20260505231538 | 80 | 265 | 0.0 | 1.0 | 0.00 | 0.00 | 0.00 | 15 | 1004.5 |
| 20260505230041 | 79 | 0 | 0.0 | 4.0 | 0.00 | 0.00 | 0.00 | 16 | 1004.6 |
| 20260505224540 | 79 | 0 | 0.0 | 6.0 | 0.00 | 0.00 | 0.00 | 15 | 1004.6 |
| 20260505223051 | 78 | 0 | 1.0 | 8.0 | 0.00 | 0.00 | 0.00 | 15 | 1004.7 |
| 20260505221543 | 78 | 0 | 0.0 | 7.0 | 0.00 | 0.00 | 0.00 | 16 | 1004.8 |
| 20260505220043 | 79 | 0 | 0.0 | 4.0 | 0.00 | 0.00 | 0.00 | 18 | 1005.1 |
| 20260505214549 | 79 | 0 | 0.0 | 4.0 | 0.00 | 0.00 | 0.00 | 17 | 1005.5 |
| 20260505213036 | 77 | 0 | 1.0 | 5.0 | 0.00 | 0.00 | 0.00 | 18 | 1005.5 |
| 20260505211542 | 77 | 0 | 0.0 | 2.0 | 0.00 | 0.00 | 0.00 | 19 | 1005.8 |
| 20260505210035 | 77 | 15 | 0.0 | 4.0 | 0.00 | 0.00 | 0.00 | 21 | 1005.9 |
| 20260505204542 | 76 | 0 | 1.0 | 4.0 | 0.00 | 0.00 | 0.00 | 21 | 1006.1 |
| 20260505203050 | 78 | 0 | 0.0 | 5.0 | 0.00 | 0.00 | 0.00 | 21 | 1006.1 |
| 20260505201545 | 78 | 0 | 0.0 | 4.0 | 0.00 | 0.00 | 0.00 | 20 | 1006.1 |
| 20260505200039 | 77 | 198 | 0.0 | 5.0 | 0.00 | 0.00 | 0.00 | 21 | 1006.2 |
| 20260505194543 | 76 | 0 | 0.0 | 10.0 | 0.00 | 0.00 | 0.00 | 23 | 1006.4 |
| 20260505193041 | 74 | 0 | 0.0 | 0.0 | 0.00 | 0.00 | 0.00 | 26 | 1006.6 |
| 20260505191543 | 73 | 0 | 0.0 | 4.0 | 0.00 | 0.00 | 0.00 | 29 | 1006.7 |
| 20260505190040 | 72 | 0 | 0.0 | 6.0 | 0.00 | 0.00 | 0.00 | 29 | 1006.9 |
| 20260505184546 | 73 | 0 | 0.0 | 4.0 | 0.00 | 0.00 | 0.00 | 29 | 1006.9 |
| 20260505183043 | 75 | 0 | 0.0 | 3.0 | 0.00 | 0.00 | 0.00 | 28 | 1006.9 |
| 20260505181542 | 74 | 0 | 0.0 | 6.0 | 0.00 | 0.00 | 0.00 | 28 | 1006.9 |
| 20260505180044 | 72 | 0 | 0.0 | 5.0 | 0.00 | 0.00 | 0.00 | 30 | 1007.0 |
| 20260505174536 | 72 | 4 | 0.0 | 4.0 | 0.00 | 0.00 | 0.00 | 31 | 1007.0 |